sensor_id;sensor_type;location;lat;lon;timestamp;P1;durP1;ratioP1;P2;durP2;ratioP2
78820;SDS011;68171;13.882;99.692;2023-03-26T00:00:56;75.70;;;67.60;;
78820;SDS011;68171;13.882;99.692;2023-03-26T00:02:03;85.07;;;75.88;;
78820;SDS011;68171;13.882;99.692;2023-03-26T00:03:09;83.00;;;73.80;;
78820;SDS011;68171;13.882;99.692;2023-03-26T00:04:16;85.28;;;76.18;;
78820;SDS011;68171;13.882;99.692;2023-03-26T00:05:22;82.07;;;73.55;;
78820;SDS011;68171;13.882;99.692;2023-03-26T00:06:29;84.78;;;75.57;;
78820;SDS011;68171;13.882;99.692;2023-03-26T00:07:38;85.57;;;76.18;;
78820;SDS011;68171;13.882;99.692;2023-03-26T00:08:45;87.32;;;75.57;;
78820;SDS011;68171;13.882;99.692;2023-03-26T00:09:51;85.05;;;75.97;;
78820;SDS011;68171;13.882;99.692;2023-03-26T00:10:58;85.88;;;76.50;;
78820;SDS011;68171;13.882;99.692;2023-03-26T00:12:03;80.77;;;71.93;;
78820;SDS011;68171;13.882;99.692;2023-03-26T00:13:10;82.03;;;73.03;;
78820;SDS011;68171;13.882;99.692;2023-03-26T00:14:15;84.00;;;74.35;;
78820;SDS011;68171;13.882;99.692;2023-03-26T00:15:22;82.03;;;73.20;;
78820;SDS011;68171;13.882;99.692;2023-03-26T00:16:28;79.43;;;70.75;;
78820;SDS011;68171;13.882;99.692;2023-03-26T00:17:36;82.72;;;73.63;;
78820;SDS011;68171;13.882;99.692;2023-03-26T00:18:41;80.03;;;70.82;;
78820;SDS011;68171;13.882;99.692;2023-03-26T00:19:48;82.63;;;68.47;;
78820;SDS011;68171;13.882;99.692;2023-03-26T00:20:53;73.05;;;65.03;;
78820;SDS011;68171;13.882;99.692;2023-03-26T00:22:00;74.60;;;65.40;;
78820;SDS011;68171;13.882;99.692;2023-03-26T00:23:09;76.03;;;67.60;;
78820;SDS011;68171;13.882;99.692;2023-03-26T00:24:14;77.05;;;68.85;;
78820;SDS011;68171;13.882;99.692;2023-03-26T00:25:21;73.50;;;65.40;;
78820;SDS011;68171;13.882;99.692;2023-03-26T00:26:26;76.15;;;67.13;;
78820;SDS011;68171;13.882;99.692;2023-03-26T00:27:33;72.63;;;64.63;;
78820;SDS011;68171;13.882;99.692;2023-03-26T00:28:40;72.07;;;63.72;;
78820;SDS011;68171;13.882;99.692;2023-03-26T00:29:46;70.53;;;62.80;;
78820;SDS011;68171;13.882;99.692;2023-03-26T00:30:56;77.45;;;69.05;;
78820;SDS011;68171;13.882;99.692;2023-03-26T00:32:02;73.22;;;65.15;;
78820;SDS011;68171;13.882;99.692;2023-03-26T00:33:10;74.13;;;64.68;;
78820;SDS011;68171;13.882;99.692;2023-03-26T00:34:15;75.30;;;67.23;;
78820;SDS011;68171;13.882;99.692;2023-03-26T00:35:23;73.38;;;65.43;;
78820;SDS011;68171;13.882;99.692;2023-03-26T00:36:28;75.68;;;66.65;;
78820;SDS011;68171;13.882;99.692;2023-03-26T00:37:38;73.53;;;65.45;;
78820;SDS011;68171;13.882;99.692;2023-03-26T00:38:46;74.70;;;66.68;;
78820;SDS011;68171;13.882;99.692;2023-03-26T00:39:56;75.00;;;65.72;;
78820;SDS011;68171;13.882;99.692;2023-03-26T00:41:07;69.75;;;62.17;;
78820;SDS011;68171;13.882;99.692;2023-03-26T00:42:20;74.85;;;66.68;;
78820;SDS011;68171;13.882;99.692;2023-03-26T00:43:26;74.82;;;66.80;;
78820;SDS011;68171;13.882;99.692;2023-03-26T00:44:35;78.40;;;65.93;;
78820;SDS011;68171;13.882;99.692;2023-03-26T00:45:41;78.87;;;70.20;;
78820;SDS011;68171;13.882;99.692;2023-03-26T00:46:47;77.57;;;66.75;;
78820;SDS011;68171;13.882;99.692;2023-03-26T00:47:53;76.85;;;67.75;;
78820;SDS011;68171;13.882;99.692;2023-03-26T00:48:59;78.70;;;70.05;;
78820;SDS011;68171;13.882;99.692;2023-03-26T00:50:07;86.63;;;76.10;;
78820;SDS011;68171;13.882;99.692;2023-03-26T00:51:18;73.38;;;64.43;;
78820;SDS011;68171;13.882;99.692;2023-03-26T00:52:25;81.72;;;72.78;;
78820;SDS011;68171;13.882;99.692;2023-03-26T00:53:32;75.70;;;67.28;;
78820;SDS011;68171;13.882;99.692;2023-03-26T00:54:42;73.80;;;65.60;;
78820;SDS011;68171;13.882;99.692;2023-03-26T00:55:47;73.70;;;65.32;;
78820;SDS011;68171;13.882;99.692;2023-03-26T00:56:54;70.00;;;61.07;;
78820;SDS011;68171;13.882;99.692;2023-03-26T00:58:02;74.68;;;64.60;;
78820;SDS011;68171;13.882;99.692;2023-03-26T00:59:09;74.43;;;62.13;;
78820;SDS011;68171;13.882;99.692;2023-03-26T01:00:16;64.65;;;54.58;;
78820;SDS011;68171;13.882;99.692;2023-03-26T01:01:23;77.95;;;64.45;;
78820;SDS011;68171;13.882;99.692;2023-03-26T01:02:31;70.05;;;61.17;;
78820;SDS011;68171;13.882;99.692;2023-03-26T01:03:37;60.03;;;50.75;;
78820;SDS011;68171;13.882;99.692;2023-03-26T01:04:57;61.20;;;53.38;;
78820;SDS011;68171;13.882;99.692;2023-03-26T01:06:06;61.08;;;51.60;;
78820;SDS011;68171;13.882;99.692;2023-03-26T01:07:14;61.47;;;52.35;;
78820;SDS011;68171;13.882;99.692;2023-03-26T01:08:25;61.57;;;53.60;;
78820;SDS011;68171;13.882;99.692;2023-03-26T01:09:34;61.75;;;52.40;;
78820;SDS011;68171;13.882;99.692;2023-03-26T01:10:46;56.70;;;50.22;;
78820;SDS011;68171;13.882;99.692;2023-03-26T01:11:53;61.25;;;54.30;;
78820;SDS011;68171;13.882;99.692;2023-03-26T01:13:00;58.80;;;52.38;;
78820;SDS011;68171;13.882;99.692;2023-03-26T01:14:07;66.13;;;55.95;;
78820;SDS011;68171;13.882;99.692;2023-03-26T01:15:16;65.38;;;55.72;;
78820;SDS011;68171;13.882;99.692;2023-03-26T01:16:23;66.72;;;58.85;;
78820;SDS011;68171;13.882;99.692;2023-03-26T01:17:31;65.80;;;55.67;;
78820;SDS011;68171;13.882;99.692;2023-03-26T01:18:37;73.10;;;64.47;;
78820;SDS011;68171;13.882;99.692;2023-03-26T01:19:46;69.20;;;60.70;;
78820;SDS011;68171;13.882;99.692;2023-03-26T01:20:54;74.57;;;64.47;;
78820;SDS011;68171;13.882;99.692;2023-03-26T01:22:08;68.80;;;60.38;;
78820;SDS011;68171;13.882;99.692;2023-03-26T01:23:18;68.55;;;59.30;;
78820;SDS011;68171;13.882;99.692;2023-03-26T01:24:27;70.05;;;61.28;;
78820;SDS011;68171;13.882;99.692;2023-03-26T01:25:35;65.10;;;57.22;;
78820;SDS011;68171;13.882;99.692;2023-03-26T01:26:50;69.70;;;61.97;;
78820;SDS011;68171;13.882;99.692;2023-03-26T01:28:12;67.53;;;58.97;;
78820;SDS011;68171;13.882;99.692;2023-03-26T01:29:21;71.53;;;63.70;;
78820;SDS011;68171;13.882;99.692;2023-03-26T01:30:35;67.20;;;59.95;;
78820;SDS011;68171;13.882;99.692;2023-03-26T01:31:46;72.80;;;64.47;;
78820;SDS011;68171;13.882;99.692;2023-03-26T01:33:00;75.82;;;67.60;;
78820;SDS011;68171;13.882;99.692;2023-03-26T01:34:08;70.65;;;62.80;;
78820;SDS011;68171;13.882;99.692;2023-03-26T01:35:20;75.07;;;66.70;;
78820;SDS011;68171;13.882;99.692;2023-03-26T01:36:34;69.55;;;61.83;;
78820;SDS011;68171;13.882;99.692;2023-03-26T01:37:47;68.07;;;59.80;;
78820;SDS011;68171;13.882;99.692;2023-03-26T01:39:02;71.95;;;63.55;;
78820;SDS011;68171;13.882;99.692;2023-03-26T01:40:13;73.80;;;63.08;;
78820;SDS011;68171;13.882;99.692;2023-03-26T01:41:23;73.18;;;65.28;;
78820;SDS011;68171;13.882;99.692;2023-03-26T01:42:35;69.57;;;61.88;;
78820;SDS011;68171;13.882;99.692;2023-03-26T01:43:44;70.13;;;62.43;;
78820;SDS011;68171;13.882;99.692;2023-03-26T01:44:53;76.32;;;66.72;;
78820;SDS011;68171;13.882;99.692;2023-03-26T01:46:02;76.07;;;67.82;;
78820;SDS011;68171;13.882;99.692;2023-03-26T01:47:09;73.40;;;64.40;;
78820;SDS011;68171;13.882;99.692;2023-03-26T01:48:16;76.03;;;64.13;;
78820;SDS011;68171;13.882;99.692;2023-03-26T01:49:22;75.20;;;66.85;;
78820;SDS011;68171;13.882;99.692;2023-03-26T01:50:29;80.88;;;69.35;;
78820;SDS011;68171;13.882;99.692;2023-03-26T01:51:34;74.53;;;65.60;;
78820;SDS011;68171;13.882;99.692;2023-03-26T01:52:41;69.60;;;61.92;;
78820;SDS011;68171;13.882;99.692;2023-03-26T01:53:46;75.72;;;66.10;;
78820;SDS011;68171;13.882;99.692;2023-03-26T01:54:53;74.60;;;63.77;;
78820;SDS011;68171;13.882;99.692;2023-03-26T01:56:04;73.50;;;64.65;;
78820;SDS011;68171;13.882;99.692;2023-03-26T01:57:19;71.20;;;61.03;;
78820;SDS011;68171;13.882;99.692;2023-03-26T01:58:30;72.30;;;64.25;;
78820;SDS011;68171;13.882;99.692;2023-03-26T01:59:44;70.43;;;60.17;;
78820;SDS011;68171;13.882;99.692;2023-03-26T02:01:02;69.18;;;61.85;;
78820;SDS011;68171;13.882;99.692;2023-03-26T02:02:16;68.88;;;59.78;;
78820;SDS011;68171;13.882;99.692;2023-03-26T02:03:26;71.25;;;63.55;;
78820;SDS011;68171;13.882;99.692;2023-03-26T02:04:37;68.32;;;61.13;;
78820;SDS011;68171;13.882;99.692;2023-03-26T02:05:46;69.35;;;61.85;;
78820;SDS011;68171;13.882;99.692;2023-03-26T02:06:58;68.80;;;61.53;;
78820;SDS011;68171;13.882;99.692;2023-03-26T02:08:09;69.97;;;61.17;;
78820;SDS011;68171;13.882;99.692;2023-03-26T02:09:24;68.43;;;60.38;;
78820;SDS011;68171;13.882;99.692;2023-03-26T02:10:32;72.47;;;64.50;;
78820;SDS011;68171;13.882;99.692;2023-03-26T02:11:44;66.90;;;59.30;;
78820;SDS011;68171;13.882;99.692;2023-03-26T02:12:51;72.55;;;64.95;;
78820;SDS011;68171;13.882;99.692;2023-03-26T02:13:58;75.22;;;66.13;;
78820;SDS011;68171;13.882;99.692;2023-03-26T02:15:03;68.30;;;60.88;;
78820;SDS011;68171;13.882;99.692;2023-03-26T02:16:12;65.15;;;57.13;;
78820;SDS011;68171;13.882;99.692;2023-03-26T02:17:19;64.45;;;57.40;;
78820;SDS011;68171;13.882;99.692;2023-03-26T02:18:26;66.33;;;59.13;;
78820;SDS011;68171;13.882;99.692;2023-03-26T02:19:38;63.13;;;55.95;;
78820;SDS011;68171;13.882;99.692;2023-03-26T02:20:45;63.55;;;56.85;;
78820;SDS011;68171;13.882;99.692;2023-03-26T02:21:51;60.38;;;53.88;;
78820;SDS011;68171;13.882;99.692;2023-03-26T02:23:02;58.47;;;52.10;;
78820;SDS011;68171;13.882;99.692;2023-03-26T02:24:08;57.63;;;51.40;;
78820;SDS011;68171;13.882;99.692;2023-03-26T02:25:15;58.25;;;51.90;;
78820;SDS011;68171;13.882;99.692;2023-03-26T02:26:21;53.58;;;47.45;;
78820;SDS011;68171;13.882;99.692;2023-03-26T02:27:30;54.67;;;48.25;;
78820;SDS011;68171;13.882;99.692;2023-03-26T02:28:36;53.20;;;46.75;;
78820;SDS011;68171;13.882;99.692;2023-03-26T02:29:43;52.13;;;46.47;;
78820;SDS011;68171;13.882;99.692;2023-03-26T02:30:50;50.83;;;45.10;;
78820;SDS011;68171;13.882;99.692;2023-03-26T02:32:00;49.03;;;43.72;;
78820;SDS011;68171;13.882;99.692;2023-03-26T02:33:07;52.17;;;46.47;;
78820;SDS011;68171;13.882;99.692;2023-03-26T02:34:17;49.85;;;43.60;;
78820;SDS011;68171;13.882;99.692;2023-03-26T02:35:23;53.13;;;46.00;;
78820;SDS011;68171;13.882;99.692;2023-03-26T02:36:30;55.15;;;47.28;;
78820;SDS011;68171;13.882;99.692;2023-03-26T02:37:36;52.33;;;45.20;;
78820;SDS011;68171;13.882;99.692;2023-03-26T02:38:42;53.00;;;47.33;;
78820;SDS011;68171;13.882;99.692;2023-03-26T02:39:48;50.70;;;45.08;;
78820;SDS011;68171;13.882;99.692;2023-03-26T02:40:55;54.53;;;46.67;;
78820;SDS011;68171;13.882;99.692;2023-03-26T02:42:00;52.30;;;44.22;;
78820;SDS011;68171;13.882;99.692;2023-03-26T02:43:08;49.90;;;44.50;;
78820;SDS011;68171;13.882;99.692;2023-03-26T02:44:14;49.05;;;43.65;;
78820;SDS011;68171;13.882;99.692;2023-03-26T02:45:20;50.65;;;45.08;;
78820;SDS011;68171;13.882;99.692;2023-03-26T02:46:26;55.22;;;49.10;;
78820;SDS011;68171;13.882;99.692;2023-03-26T02:47:32;51.33;;;45.78;;
78820;SDS011;68171;13.882;99.692;2023-03-26T02:48:38;51.53;;;46.08;;
78820;SDS011;68171;13.882;99.692;2023-03-26T02:49:46;51.92;;;43.70;;
78820;SDS011;68171;13.882;99.692;2023-03-26T02:50:51;50.45;;;44.45;;
78820;SDS011;68171;13.882;99.692;2023-03-26T02:51:58;54.63;;;48.47;;
78820;SDS011;68171;13.882;99.692;2023-03-26T02:53:03;54.65;;;48.75;;
78820;SDS011;68171;13.882;99.692;2023-03-26T02:54:10;56.20;;;50.15;;
78820;SDS011;68171;13.882;99.692;2023-03-26T02:55:18;51.47;;;45.90;;
78820;SDS011;68171;13.882;99.692;2023-03-26T02:56:24;50.85;;;44.13;;
78820;SDS011;68171;13.882;99.692;2023-03-26T02:57:30;50.60;;;45.08;;
78820;SDS011;68171;13.882;99.692;2023-03-26T02:58:38;48.13;;;42.58;;
78820;SDS011;68171;13.882;99.692;2023-03-26T02:59:45;50.35;;;44.55;;
78820;SDS011;68171;13.882;99.692;2023-03-26T03:00:52;47.08;;;41.28;;
78820;SDS011;68171;13.882;99.692;2023-03-26T03:01:59;44.80;;;39.95;;
78820;SDS011;68171;13.882;99.692;2023-03-26T03:03:04;44.93;;;39.23;;
78820;SDS011;68171;13.882;99.692;2023-03-26T03:04:12;46.20;;;39.58;;
78820;SDS011;68171;13.882;99.692;2023-03-26T03:05:17;44.90;;;39.97;;
78820;SDS011;68171;13.882;99.692;2023-03-26T03:06:28;48.22;;;41.15;;
78820;SDS011;68171;13.882;99.692;2023-03-26T03:07:34;45.33;;;40.38;;
78820;SDS011;68171;13.882;99.692;2023-03-26T03:08:41;45.67;;;40.60;;
78820;SDS011;68171;13.882;99.692;2023-03-26T03:09:48;43.85;;;39.08;;
78820;SDS011;68171;13.882;99.692;2023-03-26T03:10:55;42.45;;;36.95;;
78820;SDS011;68171;13.882;99.692;2023-03-26T03:12:01;40.88;;;36.65;;
78820;SDS011;68171;13.882;99.692;2023-03-26T03:13:08;44.33;;;39.63;;
78820;SDS011;68171;13.882;99.692;2023-03-26T03:14:15;45.03;;;37.93;;
78820;SDS011;68171;13.882;99.692;2023-03-26T03:15:22;41.47;;;36.83;;
78820;SDS011;68171;13.882;99.692;2023-03-26T03:16:27;41.83;;;35.28;;
78820;SDS011;68171;13.882;99.692;2023-03-26T03:17:34;41.03;;;36.63;;
78820;SDS011;68171;13.882;99.692;2023-03-26T03:18:40;41.28;;;36.90;;
78820;SDS011;68171;13.882;99.692;2023-03-26T03:19:46;40.00;;;35.05;;
78820;SDS011;68171;13.882;99.692;2023-03-26T03:20:52;41.20;;;36.90;;
78820;SDS011;68171;13.882;99.692;2023-03-26T03:21:58;41.40;;;37.00;;
78820;SDS011;68171;13.882;99.692;2023-03-26T03:23:04;40.10;;;35.80;;
78820;SDS011;68171;13.882;99.692;2023-03-26T03:24:10;38.88;;;34.72;;
78820;SDS011;68171;13.882;99.692;2023-03-26T03:25:20;39.57;;;35.37;;
78820;SDS011;68171;13.882;99.692;2023-03-26T03:26:26;40.23;;;36.03;;
78820;SDS011;68171;13.882;99.692;2023-03-26T03:27:32;38.83;;;34.67;;
78820;SDS011;68171;13.882;99.692;2023-03-26T03:28:41;37.13;;;33.22;;
78820;SDS011;68171;13.882;99.692;2023-03-26T03:29:50;38.50;;;34.50;;
78820;SDS011;68171;13.882;99.692;2023-03-26T03:30:58;35.33;;;31.55;;
78820;SDS011;68171;13.882;99.692;2023-03-26T03:32:04;35.25;;;31.55;;
78820;SDS011;68171;13.882;99.692;2023-03-26T03:33:10;34.10;;;30.40;;
78820;SDS011;68171;13.882;99.692;2023-03-26T03:34:16;37.92;;;33.95;;
78820;SDS011;68171;13.882;99.692;2023-03-26T03:35:22;34.92;;;31.17;;
78820;SDS011;68171;13.882;99.692;2023-03-26T03:36:30;38.80;;;34.57;;
78820;SDS011;68171;13.882;99.692;2023-03-26T03:37:40;40.33;;;36.13;;
78820;SDS011;68171;13.882;99.692;2023-03-26T03:38:46;42.55;;;38.15;;
78820;SDS011;68171;13.882;99.692;2023-03-26T03:39:53;48.83;;;40.92;;
78820;SDS011;68171;13.882;99.692;2023-03-26T03:40:58;44.53;;;39.15;;
78820;SDS011;68171;13.882;99.692;2023-03-26T03:42:05;45.00;;;40.08;;
78820;SDS011;68171;13.882;99.692;2023-03-26T03:43:10;42.28;;;37.88;;
78820;SDS011;68171;13.882;99.692;2023-03-26T03:44:17;44.45;;;39.75;;
78820;SDS011;68171;13.882;99.692;2023-03-26T03:45:24;41.47;;;36.80;;
78820;SDS011;68171;13.882;99.692;2023-03-26T03:46:30;43.25;;;38.70;;
78820;SDS011;68171;13.882;99.692;2023-03-26T03:47:37;45.53;;;40.63;;
78820;SDS011;68171;13.882;99.692;2023-03-26T03:48:43;41.13;;;36.77;;
78820;SDS011;68171;13.882;99.692;2023-03-26T03:49:52;46.08;;;41.17;;
78820;SDS011;68171;13.882;99.692;2023-03-26T03:50:58;42.85;;;38.25;;
78820;SDS011;68171;13.882;99.692;2023-03-26T03:52:05;47.00;;;42.10;;
78820;SDS011;68171;13.882;99.692;2023-03-26T03:53:11;45.00;;;40.25;;
78820;SDS011;68171;13.882;99.692;2023-03-26T03:54:18;41.85;;;37.53;;
78820;SDS011;68171;13.882;99.692;2023-03-26T03:55:23;42.90;;;38.50;;
78820;SDS011;68171;13.882;99.692;2023-03-26T03:56:31;44.45;;;39.95;;
78820;SDS011;68171;13.882;99.692;2023-03-26T03:57:38;46.83;;;42.00;;
78820;SDS011;68171;13.882;99.692;2023-03-26T03:58:43;45.90;;;40.87;;
78820;SDS011;68171;13.882;99.692;2023-03-26T03:59:50;44.97;;;40.13;;
78820;SDS011;68171;13.882;99.692;2023-03-26T04:00:58;45.28;;;40.53;;
78820;SDS011;68171;13.882;99.692;2023-03-26T04:02:05;42.42;;;37.97;;
78820;SDS011;68171;13.882;99.692;2023-03-26T04:03:13;44.22;;;39.70;;
78820;SDS011;68171;13.882;99.692;2023-03-26T04:04:34;45.10;;;40.33;;
78820;SDS011;68171;13.882;99.692;2023-03-26T04:05:40;44.00;;;39.15;;
78820;SDS011;68171;13.882;99.692;2023-03-26T04:06:51;44.97;;;40.28;;
78820;SDS011;68171;13.882;99.692;2023-03-26T04:07:56;46.90;;;42.17;;
78820;SDS011;68171;13.882;99.692;2023-03-26T04:09:03;45.22;;;40.38;;
78820;SDS011;68171;13.882;99.692;2023-03-26T04:10:11;45.43;;;40.60;;
78820;SDS011;68171;13.882;99.692;2023-03-26T04:11:19;46.80;;;41.73;;
78820;SDS011;68171;13.882;99.692;2023-03-26T04:12:25;45.58;;;40.88;;
78820;SDS011;68171;13.882;99.692;2023-03-26T04:13:32;46.35;;;41.60;;
78820;SDS011;68171;13.882;99.692;2023-03-26T04:14:37;43.95;;;39.40;;
78820;SDS011;68171;13.882;99.692;2023-03-26T04:15:48;47.58;;;41.53;;
78820;SDS011;68171;13.882;99.692;2023-03-26T04:17:01;45.53;;;40.78;;
78820;SDS011;68171;13.882;99.692;2023-03-26T04:18:08;45.42;;;40.70;;
78820;SDS011;68171;13.882;99.692;2023-03-26T04:19:14;47.47;;;42.35;;
78820;SDS011;68171;13.882;99.692;2023-03-26T04:20:20;47.47;;;41.65;;
78820;SDS011;68171;13.882;99.692;2023-03-26T04:21:26;47.60;;;41.50;;
78820;SDS011;68171;13.882;99.692;2023-03-26T04:22:33;47.27;;;42.37;;
78820;SDS011;68171;13.882;99.692;2023-03-26T04:23:38;47.97;;;42.78;;
78820;SDS011;68171;13.882;99.692;2023-03-26T04:24:45;47.03;;;42.22;;
78820;SDS011;68171;13.882;99.692;2023-03-26T04:25:52;48.22;;;43.13;;
78820;SDS011;68171;13.882;99.692;2023-03-26T04:27:00;45.40;;;40.75;;
78820;SDS011;68171;13.882;99.692;2023-03-26T04:28:05;45.30;;;40.47;;
78820;SDS011;68171;13.882;99.692;2023-03-26T04:29:14;46.90;;;42.05;;
78820;SDS011;68171;13.882;99.692;2023-03-26T04:30:20;47.05;;;41.85;;
78820;SDS011;68171;13.882;99.692;2023-03-26T04:31:27;47.17;;;42.28;;
78820;SDS011;68171;13.882;99.692;2023-03-26T04:32:35;45.33;;;40.63;;
78820;SDS011;68171;13.882;99.692;2023-03-26T04:33:43;49.33;;;44.13;;
78820;SDS011;68171;13.882;99.692;2023-03-26T04:34:49;47.85;;;42.90;;
78820;SDS011;68171;13.882;99.692;2023-03-26T04:35:56;47.97;;;42.78;;
78820;SDS011;68171;13.882;99.692;2023-03-26T04:37:04;47.45;;;42.38;;
78820;SDS011;68171;13.882;99.692;2023-03-26T04:38:11;45.80;;;41.13;;
78820;SDS011;68171;13.882;99.692;2023-03-26T04:39:19;46.25;;;41.33;;
78820;SDS011;68171;13.882;99.692;2023-03-26T04:40:31;48.75;;;43.13;;
78820;SDS011;68171;13.882;99.692;2023-03-26T04:41:39;52.08;;;46.53;;
78820;SDS011;68171;13.882;99.692;2023-03-26T04:42:46;54.53;;;48.75;;
78820;SDS011;68171;13.882;99.692;2023-03-26T04:43:52;57.10;;;51.20;;
78820;SDS011;68171;13.882;99.692;2023-03-26T04:44:59;54.77;;;48.87;;
78820;SDS011;68171;13.882;99.692;2023-03-26T04:46:10;56.22;;;50.38;;
78820;SDS011;68171;13.882;99.692;2023-03-26T04:47:17;59.25;;;53.05;;
78820;SDS011;68171;13.882;99.692;2023-03-26T04:48:28;59.78;;;53.60;;
78820;SDS011;68171;13.882;99.692;2023-03-26T04:49:35;60.35;;;53.88;;
78820;SDS011;68171;13.882;99.692;2023-03-26T04:50:40;57.97;;;51.90;;
78820;SDS011;68171;13.882;99.692;2023-03-26T04:51:47;58.60;;;52.53;;
78820;SDS011;68171;13.882;99.692;2023-03-26T04:52:53;58.55;;;52.63;;
78820;SDS011;68171;13.882;99.692;2023-03-26T04:54:00;58.75;;;52.47;;
78820;SDS011;68171;13.882;99.692;2023-03-26T04:55:06;54.87;;;49.13;;
78820;SDS011;68171;13.882;99.692;2023-03-26T04:56:24;54.47;;;48.43;;
78820;SDS011;68171;13.882;99.692;2023-03-26T04:57:36;54.00;;;48.40;;
78820;SDS011;68171;13.882;99.692;2023-03-26T04:58:46;59.28;;;53.13;;
78820;SDS011;68171;13.882;99.692;2023-03-26T04:59:52;58.40;;;52.10;;
78820;SDS011;68171;13.882;99.692;2023-03-26T05:00:59;59.88;;;53.80;;
78820;SDS011;68171;13.882;99.692;2023-03-26T05:02:11;58.38;;;52.33;;
78820;SDS011;68171;13.882;99.692;2023-03-26T05:03:18;60.47;;;54.15;;
78820;SDS011;68171;13.882;99.692;2023-03-26T05:04:25;60.83;;;54.38;;
78820;SDS011;68171;13.882;99.692;2023-03-26T05:05:32;57.88;;;51.70;;
78820;SDS011;68171;13.882;99.692;2023-03-26T05:06:37;58.47;;;52.60;;
78820;SDS011;68171;13.882;99.692;2023-03-26T05:07:44;57.87;;;51.87;;
78820;SDS011;68171;13.882;99.692;2023-03-26T05:08:50;56.60;;;50.63;;
78820;SDS011;68171;13.882;99.692;2023-03-26T05:09:56;58.42;;;52.38;;
78820;SDS011;68171;13.882;99.692;2023-03-26T05:11:04;56.63;;;50.97;;
78820;SDS011;68171;13.882;99.692;2023-03-26T05:12:13;58.25;;;52.22;;
78820;SDS011;68171;13.882;99.692;2023-03-26T05:13:19;57.58;;;51.65;;
78820;SDS011;68171;13.882;99.692;2023-03-26T05:14:26;54.60;;;48.88;;
78820;SDS011;68171;13.882;99.692;2023-03-26T05:15:31;58.13;;;51.97;;
78820;SDS011;68171;13.882;99.692;2023-03-26T05:16:37;57.60;;;51.38;;
78820;SDS011;68171;13.882;99.692;2023-03-26T05:17:44;54.60;;;49.10;;
78820;SDS011;68171;13.882;99.692;2023-03-26T05:18:50;56.50;;;50.70;;
78820;SDS011;68171;13.882;99.692;2023-03-26T05:19:58;55.67;;;50.15;;
78820;SDS011;68171;13.882;99.692;2023-03-26T05:21:05;56.42;;;50.72;;
78820;SDS011;68171;13.882;99.692;2023-03-26T05:22:10;56.20;;;50.65;;
78820;SDS011;68171;13.882;99.692;2023-03-26T05:23:17;54.03;;;48.45;;
78820;SDS011;68171;13.882;99.692;2023-03-26T05:24:24;53.38;;;47.90;;
78820;SDS011;68171;13.882;99.692;2023-03-26T05:25:31;53.10;;;47.58;;
78820;SDS011;68171;13.882;99.692;2023-03-26T05:26:37;51.28;;;45.90;;
78820;SDS011;68171;13.882;99.692;2023-03-26T05:27:44;51.72;;;46.45;;
78820;SDS011;68171;13.882;99.692;2023-03-26T05:28:49;51.90;;;46.60;;
78820;SDS011;68171;13.882;99.692;2023-03-26T05:29:59;51.30;;;46.03;;
78820;SDS011;68171;13.882;99.692;2023-03-26T05:31:04;47.75;;;42.75;;
78820;SDS011;68171;13.882;99.692;2023-03-26T05:32:12;50.30;;;45.15;;
78820;SDS011;68171;13.882;99.692;2023-03-26T05:33:17;51.90;;;46.38;;
78820;SDS011;68171;13.882;99.692;2023-03-26T05:34:24;47.40;;;42.45;;
78820;SDS011;68171;13.882;99.692;2023-03-26T05:35:33;48.40;;;43.47;;
78820;SDS011;68171;13.882;99.692;2023-03-26T05:36:39;47.90;;;43.15;;
78820;SDS011;68171;13.882;99.692;2023-03-26T05:37:46;49.63;;;44.53;;
78820;SDS011;68171;13.882;99.692;2023-03-26T05:38:53;46.97;;;42.28;;
78820;SDS011;68171;13.882;99.692;2023-03-26T05:40:00;46.63;;;41.90;;
78820;SDS011;68171;13.882;99.692;2023-03-26T05:41:06;47.27;;;42.53;;
78820;SDS011;68171;13.882;99.692;2023-03-26T05:42:14;46.33;;;41.65;;
78820;SDS011;68171;13.882;99.692;2023-03-26T05:43:19;44.92;;;40.28;;
78820;SDS011;68171;13.882;99.692;2023-03-26T05:44:26;45.38;;;40.53;;
78820;SDS011;68171;13.882;99.692;2023-03-26T05:45:31;39.97;;;35.90;;
78820;SDS011;68171;13.882;99.692;2023-03-26T05:46:38;43.55;;;39.20;;
78820;SDS011;68171;13.882;99.692;2023-03-26T05:47:43;42.25;;;38.05;;
78820;SDS011;68171;13.882;99.692;2023-03-26T05:48:52;42.25;;;38.03;;
78820;SDS011;68171;13.882;99.692;2023-03-26T05:49:57;41.45;;;37.20;;
78820;SDS011;68171;13.882;99.692;2023-03-26T05:51:06;40.93;;;36.83;;
78820;SDS011;68171;13.882;99.692;2023-03-26T05:52:11;41.83;;;37.47;;
78820;SDS011;68171;13.882;99.692;2023-03-26T05:53:21;40.83;;;36.72;;
78820;SDS011;68171;13.882;99.692;2023-03-26T05:54:29;41.13;;;36.88;;
78820;SDS011;68171;13.882;99.692;2023-03-26T05:55:35;40.38;;;36.28;;
78820;SDS011;68171;13.882;99.692;2023-03-26T05:56:43;41.42;;;37.10;;
78820;SDS011;68171;13.882;99.692;2023-03-26T05:57:48;39.00;;;35.20;;
78820;SDS011;68171;13.882;99.692;2023-03-26T05:58:55;40.17;;;36.17;;
78820;SDS011;68171;13.882;99.692;2023-03-26T06:00:00;40.33;;;36.05;;
78820;SDS011;68171;13.882;99.692;2023-03-26T06:01:09;41.22;;;37.13;;
78820;SDS011;68171;13.882;99.692;2023-03-26T06:02:19;40.63;;;36.40;;
78820;SDS011;68171;13.882;99.692;2023-03-26T06:03:26;40.70;;;36.50;;
78820;SDS011;68171;13.882;99.692;2023-03-26T06:04:31;41.30;;;37.10;;
78820;SDS011;68171;13.882;99.692;2023-03-26T06:05:43;41.40;;;37.17;;
78820;SDS011;68171;13.882;99.692;2023-03-26T06:06:50;41.05;;;36.75;;
78820;SDS011;68171;13.882;99.692;2023-03-26T06:07:57;39.55;;;35.42;;
78820;SDS011;68171;13.882;99.692;2023-03-26T06:09:02;41.40;;;37.03;;
78820;SDS011;68171;13.882;99.692;2023-03-26T06:10:09;40.33;;;36.13;;
78820;SDS011;68171;13.882;99.692;2023-03-26T06:11:19;40.75;;;36.65;;
78820;SDS011;68171;13.882;99.692;2023-03-26T06:12:26;40.65;;;36.47;;
78820;SDS011;68171;13.882;99.692;2023-03-26T06:13:31;39.47;;;35.43;;
78820;SDS011;68171;13.882;99.692;2023-03-26T06:14:38;39.43;;;35.53;;
78820;SDS011;68171;13.882;99.692;2023-03-26T06:15:45;40.60;;;35.60;;
78820;SDS011;68171;13.882;99.692;2023-03-26T06:16:51;40.75;;;36.65;;
78820;SDS011;68171;13.882;99.692;2023-03-26T06:17:57;39.17;;;35.20;;
78820;SDS011;68171;13.882;99.692;2023-03-26T06:19:03;39.53;;;35.47;;
78820;SDS011;68171;13.882;99.692;2023-03-26T06:20:09;37.40;;;33.80;;
78820;SDS011;68171;13.882;99.692;2023-03-26T06:21:17;38.15;;;34.25;;
78820;SDS011;68171;13.882;99.692;2023-03-26T06:22:24;40.38;;;36.25;;
78820;SDS011;68171;13.882;99.692;2023-03-26T06:23:31;36.63;;;32.67;;
78820;SDS011;68171;13.882;99.692;2023-03-26T06:24:36;38.30;;;34.40;;
78820;SDS011;68171;13.882;99.692;2023-03-26T06:25:43;40.30;;;36.30;;
78820;SDS011;68171;13.882;99.692;2023-03-26T06:26:48;38.33;;;34.28;;
78820;SDS011;68171;13.882;99.692;2023-03-26T06:27:55;38.55;;;34.65;;
78820;SDS011;68171;13.882;99.692;2023-03-26T06:29:00;39.47;;;35.47;;
78820;SDS011;68171;13.882;99.692;2023-03-26T06:30:08;37.47;;;33.78;;